createdAt,value
2023-04-26T00:00:09.563Z,8.10
2023-04-26T00:05:02.364Z,8.10
2023-04-26T00:09:54.901Z,8.00
2023-04-26T00:14:47.092Z,8.00
2023-04-26T00:19:39.828Z,7.90
2023-04-26T00:24:32.620Z,7.80
2023-04-26T00:29:24.605Z,7.80
2023-04-26T00:34:17.054Z,7.50
2023-04-26T00:39:09.465Z,7.40
2023-04-26T00:44:01.573Z,7.30
2023-04-26T00:48:53.685Z,7.20
2023-04-26T00:53:46.141Z,7.00
2023-04-26T00:58:38.568Z,6.80
2023-04-26T01:03:31.153Z,6.50
2023-04-26T01:13:58.379Z,6.20
2023-04-26T01:18:54.577Z,6.00
2023-04-26T01:23:46.781Z,5.80
2023-04-26T01:28:38.785Z,5.70
2023-04-26T01:33:30.918Z,5.70
2023-04-26T01:38:22.894Z,5.80
2023-04-26T01:43:15.668Z,5.80
2023-04-26T01:48:08.932Z,6.00
2023-04-26T01:53:01.354Z,6.00
2023-04-26T01:57:53.346Z,6.00
2023-04-26T02:02:45.708Z,6.00
2023-04-26T02:07:38.615Z,6.10
2023-04-26T02:12:31.190Z,6.20
2023-04-26T02:17:23.755Z,6.30
2023-04-26T02:22:16.210Z,6.40
2023-04-26T02:27:08.292Z,6.50
2023-04-26T02:32:00.412Z,6.50
2023-04-26T02:36:52.430Z,6.50
2023-04-26T02:41:44.487Z,6.40
2023-04-26T02:46:37.981Z,6.50
2023-04-26T02:51:31.045Z,6.50
2023-04-26T02:56:23.053Z,6.50
2023-04-26T03:01:15.417Z,6.40
2023-04-26T03:06:08.891Z,6.30
2023-04-26T03:11:01.625Z,6.10
2023-04-26T03:15:54.685Z,6.00
2023-04-26T03:20:47.331Z,6.00
2023-04-26T03:25:40.182Z,6.00
2023-04-26T03:30:32.355Z,5.90
2023-04-26T03:35:24.581Z,5.70
2023-04-26T03:40:18.071Z,5.50
2023-04-26T03:45:13.032Z,5.30
2023-04-26T03:50:06.455Z,5.20
2023-04-26T03:54:58.502Z,5.10
2023-04-26T03:59:50.504Z,5.10
2023-04-26T04:04:43.094Z,5.10
2023-04-26T04:09:35.284Z,5.10
2023-04-26T04:14:27.368Z,5.20
2023-04-26T04:19:20.705Z,5.30
2023-04-26T04:24:13.036Z,5.60
2023-04-26T04:29:08.822Z,5.90
2023-04-26T04:34:02.491Z,6.10
2023-04-26T04:38:55.049Z,6.20
2023-04-26T04:43:48.385Z,6.40
2023-04-26T04:48:41.953Z,6.70
2023-04-26T04:53:34.549Z,8.10
2023-04-26T04:58:27.067Z,8.50
2023-04-26T05:03:19.757Z,8.40
2023-04-26T05:08:12.647Z,8.20
2023-04-26T05:13:06.139Z,8.20
2023-04-26T05:17:59.678Z,8.10
2023-04-26T05:22:52.136Z,8.30
2023-04-26T05:27:45.911Z,10.90
2023-04-26T05:33:03.679Z,16.10
2023-04-26T05:38:01.368Z,20.30
2023-04-26T05:42:54.021Z,21.50
2023-04-26T05:47:47.672Z,23.30
2023-04-26T05:52:39.784Z,23.90
2023-04-26T05:57:32.037Z,24.80
2023-04-26T06:02:24.315Z,21.80
2023-04-26T06:07:17.420Z,21.60
2023-04-26T06:12:12.127Z,18.10
2023-04-26T06:17:07.609Z,16.30
2023-04-26T06:21:59.783Z,15.10
2023-04-26T06:26:53.263Z,14.70
2023-04-26T06:31:45.330Z,17.00
2023-04-26T06:36:38.363Z,22.80
2023-04-26T06:41:31.490Z,22.60
2023-04-26T06:46:23.625Z,21.50
2023-04-26T06:51:19.204Z,23.10
2023-04-26T06:56:11.347Z,21.70
2023-04-26T07:01:03.840Z,24.90
2023-04-26T07:05:56.979Z,24.70
2023-04-26T07:10:49.105Z,25.50
2023-04-26T07:15:42.297Z,26.30
2023-04-26T07:20:35.174Z,25.40
2023-04-26T07:25:27.521Z,22.20
2023-04-26T07:30:20.766Z,24.00
2023-04-26T07:35:16.499Z,22.60
2023-04-26T07:40:10.443Z,19.70
2023-04-26T07:45:03.429Z,20.50
2023-04-26T07:49:55.464Z,24.40
2023-04-26T07:54:47.888Z,21.40
2023-04-26T07:59:39.958Z,22.80
2023-04-26T08:04:34.447Z,21.50
2023-04-26T08:09:26.776Z,22.00
2023-04-26T08:14:18.867Z,22.60
2023-04-26T08:19:11.284Z,21.70
2023-04-26T08:24:03.855Z,19.30
2023-04-26T08:28:57.397Z,18.60
2023-04-26T08:33:49.509Z,17.30
2023-04-26T08:38:42.589Z,15.70
2023-04-26T08:43:37.342Z,14.70
2023-04-26T08:48:32.699Z,17.20
2023-04-26T08:53:25.487Z,21.20
2023-04-26T08:58:21.683Z,19.60
2023-04-26T09:03:14.535Z,17.30
2023-04-26T09:08:07.979Z,18.00
2023-04-26T09:13:00.117Z,21.30
2023-04-26T09:17:53.189Z,21.90
2023-04-26T09:22:46.766Z,20.10
2023-04-26T09:27:41.488Z,18.90
2023-04-26T09:32:59.044Z,18.90
2023-04-26T09:38:10.489Z,23.50
2023-04-26T09:43:13.260Z,27.10
2023-04-26T09:48:23.196Z,23.70
2023-04-26T09:53:29.538Z,19.80
2023-04-26T09:58:23.062Z,18.60
2023-04-26T10:03:16.031Z,19.30
2023-04-26T10:08:08.833Z,18.30
2023-04-26T10:13:01.085Z,18.20
2023-04-26T10:17:53.378Z,17.70
2023-04-26T10:22:50.343Z,16.60
2023-04-26T10:27:45.567Z,15.40
2023-04-26T10:32:55.340Z,14.80
2023-04-26T10:38:02.495Z,17.50
2023-04-26T10:43:13.907Z,22.40
2023-04-26T10:48:18.620Z,21.00
2023-04-26T10:53:10.789Z,19.30
2023-04-26T10:58:02.905Z,18.30
2023-04-26T11:03:06.667Z,18.20
2023-04-26T11:08:16.280Z,18.10
2023-04-26T11:13:08.634Z,17.30
2023-04-26T11:18:09.908Z,16.70
2023-04-26T11:23:02.537Z,16.90
2023-04-26T11:28:02.539Z,17.40
2023-04-26T11:32:55.079Z,17.10
2023-04-26T11:37:49.416Z,17.20
2023-04-26T11:42:42.447Z,17.60
2023-04-26T11:47:35.999Z,17.70
2023-04-26T11:52:28.948Z,17.20
2023-04-26T11:57:21.043Z,16.40
2023-04-26T12:02:13.377Z,15.90
2023-04-26T12:07:07.354Z,15.70
2023-04-26T12:12:06.502Z,15.90
2023-04-26T12:17:03.356Z,16.60
2023-04-26T12:21:56.119Z,17.40
2023-04-26T12:26:49.171Z,18.00
2023-04-26T12:31:41.821Z,18.40
2023-04-26T12:36:34.102Z,18.10
2023-04-26T12:41:26.438Z,17.90
2023-04-26T12:46:18.527Z,18.20
2023-04-26T12:51:10.685Z,18.50
2023-04-26T12:56:02.753Z,18.40
2023-04-26T13:00:58.368Z,17.70
2023-04-26T13:05:50.803Z,17.30
2023-04-26T13:10:42.999Z,16.80
2023-04-26T13:15:35.130Z,16.20
2023-04-26T13:20:28.937Z,15.60
2023-04-26T13:25:22.546Z,15.10
2023-04-26T13:30:15.923Z,15.30
2023-04-26T13:35:08.703Z,15.80
2023-04-26T13:40:01.283Z,16.10
2023-04-26T13:44:53.533Z,16.10
2023-04-26T13:49:45.650Z,16.00
2023-04-26T13:54:39.901Z,16.10
2023-04-26T13:59:32.261Z,16.20
2023-04-26T14:04:24.860Z,16.30
2023-04-26T14:09:17.940Z,16.40
2023-04-26T14:14:10.029Z,16.20
2023-04-26T14:19:02.370Z,16.10
2023-04-26T14:23:54.979Z,15.80
2023-04-26T14:28:48.044Z,15.70
2023-04-26T14:33:40.153Z,15.50
2023-04-26T14:38:32.104Z,15.40
2023-04-26T14:43:24.183Z,15.20
2023-04-26T14:48:16.406Z,15.00
2023-04-26T14:53:09.857Z,14.60
2023-04-26T14:58:01.993Z,14.70
2023-04-26T15:02:54.206Z,14.70
2023-04-26T15:07:46.614Z,14.80
2023-04-26T15:12:38.866Z,15.00
2023-04-26T15:17:34.424Z,15.00
2023-04-26T15:22:26.555Z,14.80
2023-04-26T15:27:18.582Z,14.60
2023-04-26T15:32:11.320Z,14.50
2023-04-26T15:37:03.306Z,14.20
2023-04-26T15:41:55.869Z,14.00
2023-04-26T15:46:48.140Z,13.80
2023-04-26T15:51:40.209Z,13.60
2023-04-26T15:56:32.562Z,13.80
2023-04-26T16:01:24.687Z,13.90
2023-04-26T16:06:16.756Z,13.80
2023-04-26T16:11:08.856Z,13.80
2023-04-26T16:16:01.103Z,13.60
2023-04-26T16:20:53.680Z,13.60
2023-04-26T16:25:45.692Z,13.50
2023-04-26T16:30:37.887Z,13.30
2023-04-26T16:35:30.233Z,13.00
2023-04-26T16:40:23.748Z,12.70
2023-04-26T16:45:16.789Z,12.50
2023-04-26T16:50:10.451Z,12.20
2023-04-26T16:55:02.989Z,12.10
2023-04-26T16:59:56.578Z,12.10
2023-04-26T17:04:49.249Z,12.20
2023-04-26T17:09:41.441Z,12.10
2023-04-26T17:14:33.512Z,11.80
2023-04-26T17:19:26.119Z,11.80
2023-04-26T17:24:18.139Z,11.60
2023-04-26T17:29:18.302Z,11.50
2023-04-26T17:34:10.302Z,11.40
2023-04-26T17:39:02.342Z,11.40
2023-04-26T17:43:54.351Z,11.30
2023-04-26T17:48:47.534Z,11.20
2023-04-26T17:53:39.622Z,11.00
2023-04-26T17:58:31.847Z,10.90
2023-04-26T18:03:24.485Z,10.90
2023-04-26T18:08:17.239Z,10.80
2023-04-26T18:13:11.190Z,10.80
2023-04-26T18:18:05.691Z,10.70
2023-04-26T18:22:57.864Z,10.60
2023-04-26T18:27:50.038Z,10.50
2023-04-26T18:32:42.105Z,10.40
2023-04-26T18:37:34.255Z,10.30
2023-04-26T18:42:26.311Z,10.20
2023-04-26T18:47:18.455Z,10.20
2023-04-26T18:52:10.510Z,10.10
2023-04-26T18:57:03.563Z,10.10
2023-04-26T19:01:55.762Z,10.00
2023-04-26T19:06:47.787Z,10.00
2023-04-26T19:11:40.357Z,10.00
2023-04-26T19:16:32.620Z,9.80
2023-04-26T19:21:24.856Z,9.70
2023-04-26T19:26:16.921Z,9.50
2023-04-26T19:31:09.092Z,9.30
2023-04-26T19:36:01.229Z,9.00
2023-04-26T19:40:53.343Z,8.70
2023-04-26T19:45:46.116Z,8.40
2023-04-26T19:50:42.328Z,8.20
2023-04-26T19:55:34.405Z,8.10
2023-04-26T20:00:26.378Z,7.90
2023-04-26T20:05:19.671Z,7.80
2023-04-26T20:10:11.827Z,7.60
2023-04-26T20:15:04.222Z,7.40
2023-04-26T20:19:56.617Z,7.20
2023-04-26T20:24:48.660Z,7.10
2023-04-26T20:29:41.224Z,7.00
2023-04-26T20:34:33.310Z,6.80
2023-04-26T20:39:28.236Z,6.70
2023-04-26T20:44:20.270Z,6.50
2023-04-26T20:49:12.517Z,6.40
2023-04-26T20:54:04.561Z,6.30
2023-04-26T20:58:57.668Z,6.20
2023-04-26T21:03:49.804Z,5.90
2023-04-26T21:08:43.123Z,5.80
2023-04-26T21:13:35.156Z,5.60
2023-04-26T21:18:28.523Z,5.40
2023-04-26T21:23:20.993Z,5.30
2023-04-26T21:28:13.029Z,5.10
2023-04-26T21:33:05.204Z,5.10
2023-04-26T21:37:57.252Z,5.20
2023-04-26T21:42:57.978Z,5.20
2023-04-26T21:47:56.320Z,5.10
2023-04-26T21:52:49.104Z,4.90
2023-04-26T21:57:41.173Z,4.60
2023-04-26T22:02:33.242Z,4.50
2023-04-26T22:07:25.633Z,4.40
2023-04-26T22:12:20.217Z,4.50
2023-04-26T22:17:12.310Z,4.60
2023-04-26T22:22:04.433Z,4.40
2023-04-26T22:26:57.702Z,4.30
2023-04-26T22:31:49.737Z,4.20
2023-04-26T22:36:41.789Z,4.20
2023-04-26T22:41:35.036Z,4.00
2023-04-26T22:46:28.339Z,3.80
2023-04-26T22:51:20.450Z,3.80
2023-04-26T22:56:12.418Z,3.80
2023-04-26T23:01:05.826Z,3.60
2023-04-26T23:05:59.153Z,3.60
2023-04-26T23:10:51.289Z,3.70
2023-04-26T23:15:43.472Z,3.60
2023-04-26T23:20:35.738Z,3.50
2023-04-26T23:25:27.912Z,3.40
2023-04-26T23:30:21.189Z,3.20
2023-04-26T23:35:15.802Z,3.10
2023-04-26T23:40:10.087Z,3.00
2023-04-26T23:45:02.376Z,3.00
2023-04-26T23:49:55.755Z,3.10
2023-04-26T23:54:47.763Z,3.00
2023-04-26T23:59:39.874Z,3.00
